Time;durP1;ratioP1;P1;durP2;ratioP2;P2;SDS_P1;SDS_P2;PMS_P1;PMS_P2;Temp;Humidity;BMP_temperature;BMP_pressure;BME280_temperature;BME280_humidity;BME280_pressure;Samples;Min_cycle;Max_cycle;Signal;HPM_P1;HPM_P2
2023/08/11 05:16:37;;;;;;;;;;;;;;;;;;3329759;26;19926;-40
2023/08/11 05:19:04;;;;;;;;;;;;;;;;;;4990108;28;20273;-40
2023/08/11 05:21:30;;;;;;;;;;;;;;;;;;4990399;28;19906;-40
2023/08/11 05:23:56;;;;;;;;;;;;;;;;;;5008202;28;19913;-40
2023/08/11 05:26:22;;;;;;;;;;;;;;;;;;5009625;28;19909;-41
2023/08/11 05:28:48;;;;;;;;;;;;;;;;;;4990721;28;19918;-40
2023/08/11 05:31:14;;;;;;;;;;;;;;;;;;4989542;28;20392;-40
2023/08/11 05:33:40;;;;;;;;;;;;;;;;;;4990399;28;19917;-40
2023/08/11 05:36:07;;;;;;;;;;;;;;;;;;4990023;28;19910;-41
2023/08/11 05:38:33;;;;;;;;;;;;;;;;;;4990005;28;19964;-40
2023/08/11 05:40:58;;;;;;;;;;;;;;;;;;4990720;28;20361;-40
2023/08/11 05:43:24;;;;;;;;;;;;;;;;;;4990483;28;19918;-40
2023/08/11 05:45:50;;;;;;;;;;;;;;;;;;5006025;28;20326;-41
2023/08/11 05:48:16;;;;;;;;;;;;;;;;;;5009792;28;19917;-40
2023/08/11 05:50:42;;;;;;;;;;;;;;;;;;5009552;28;19936;-43
2023/08/11 05:53:08;;;;;;;;;;;;;;;;;;5004739;28;20040;-41
2023/08/11 05:55:34;;;;;;;;;;;;;;;;;;5005213;28;20384;-41
2023/08/11 05:58:00;;;;;;;;;;;;;;;;;;4992353;28;19921;-41
2023/08/11 06:00:26;;;;;;;;;;;;;;;;;;5002291;28;20008;-41
2023/08/11 06:02:52;;;;;;;;;;;;;;;;;;5010719;28;19910;-42
2023/08/11 06:05:21;;;;;;;;;;;;;;;;;;5010720;28;19914;-41
2023/08/11 06:07:47;;;;;;;;;;;;;;;;;;5003338;28;19914;-41
2023/08/11 06:10:13;;;;;;;;;;;;;;;;;;5008786;28;19918;-41
2023/08/11 06:12:39;;;;;;;;;;;;;;;;;;5008270;28;19956;-41
2023/08/11 06:15:05;;;;;;;;;;;;;;;;;;4998608;28;19967;-41
2023/08/11 06:17:30;;;;;;;;;;;;;;;;;;5010683;28;19916;-41
2023/08/11 06:19:57;;;;;;;;;;;;;;;;;;5010658;28;20364;-41
2023/08/11 06:22:23;;;;;;;;;;;;;;;;;;5010093;28;19920;-42
2023/08/11 06:24:49;;;;;;;;;;;;;;;;;;5008556;28;19913;-42
2023/08/11 06:27:15;;;;;;;;;;;;;;;;;;5010115;28;20295;-41
2023/08/11 06:29:41;;;;;;;;;;;;;;;;;;5009986;28;19914;-42
2023/08/11 06:32:06;;;;;;;;;;;;;;;;;;5005526;28;20427;-42
2023/08/11 06:34:32;;;;;;;;;;;;;;;;;;5005815;28;20288;-42
2023/08/11 06:36:58;;;;;;;;;;;;;;;;;;4991751;28;20054;-42
2023/08/11 06:39:24;;;;;;;;;;;;;;;;;;4990973;28;19917;-41
2023/08/11 06:41:50;;;;;;;;;;;;;;;;;;4992939;28;19913;-42
2023/08/11 06:44:16;;;;;;;;;;;;;;;;;;5011528;28;19917;-41
2023/08/11 06:46:42;;;;;;;;;;;;;;;;;;5009075;28;20119;-43
2023/08/11 06:49:08;;;;;;;;;;;;;;;;;;5014380;28;19921;-42
2023/08/11 06:51:34;;;;;;;;;;;;;;;;;;5013056;28;19914;-42
2023/08/11 06:53:59;;;;;;;;;;;;;;;;;;5010250;28;19928;-42
2023/08/11 06:56:25;;;;;;;;;;;;;;;;;;5012911;28;20374;-42
2023/08/11 06:58:52;;;;;;;;;;;;;;;;;;5014551;28;19909;-42
2023/08/11 07:01:18;;;;;;;;;;;;;;;;;;5014744;28;19916;-42
2023/08/11 07:03:44;;;;;;;;;;;;;;;;;;5013180;28;20271;-41
2023/08/11 07:06:10;;;;;;;;;;;;;;;;;;5013861;28;19943;-41
2023/08/11 07:08:36;;;;;;;;;;;;;;;;;;5014899;28;19961;-41
2023/08/11 07:11:02;;;;;;;;;;;;;;;;;;5014636;28;19920;-42
2023/08/11 07:13:28;;;;;;;;;;;;;;;;;;5012921;28;19915;-43
2023/08/11 07:15:54;;;;;;;;;;;;;;;;;;5014081;28;19932;-42
2023/08/11 07:18:20;;;;;;;;;;;;;;;;;;5002942;28;19925;-41
2023/08/11 07:20:46;;;;;;;;;;;;;;;;;;4994719;28;19917;-42
2023/08/11 07:23:12;;;;;;;;;;;;;;;;;;4994418;28;20300;-42
2023/08/11 07:25:38;;;;;;;;;;;;;;;;;;4994676;28;19945;-41
2023/08/11 07:28:03;;;;;;;;;;;;;;;;;;5001444;28;19921;-42
2023/08/11 07:30:30;;;;;;;;;;;;;;;;;;5000521;28;19913;-42
2023/08/11 07:32:56;;;;;;;;;;;;;;;;;;5002348;28;19924;-42
2023/08/11 07:35:21;;;;;;;;;;;;;;;;;;5007798;28;19914;-41
2023/08/11 07:37:47;;;;;;;;;;;;;;;;;;5007326;28;20388;-42
2023/08/11 07:40:13;;;;;;;;;;;;;;;;;;4994474;28;19910;-42
2023/08/11 07:42:39;;;;;;;;;;;;;;;;;;4994000;28;19909;-42
2023/08/11 07:45:05;;;;;;;;;;;;;;;;;;4999388;28;19918;-43
2023/08/11 07:47:31;;;;;;;;;;;;;;;;;;4995554;28;19910;-42
2023/08/11 07:49:57;;;;;;;;;;;;;;;;;;4995391;28;19928;-42
2023/08/11 07:52:23;;;;;;;;;;;;;;;;;;5008547;28;19918;-43
2023/08/11 07:54:48;;;;;;;;;;;;;;;;;;5009787;28;19913;-42
2023/08/11 07:57:14;;;;;;;;;;;;;;;;;;4999404;28;19918;-41
2023/08/11 07:59:40;;;;;;;;;;;;;;;;;;4994524;28;19910;-42
2023/08/11 08:02:07;;;;;;;;;;;;;;;;;;4997311;28;19910;-43
2023/08/11 08:04:33;;;;;;;;;;;;;;;;;;4994015;28;19948;-40
2023/08/11 08:06:59;;;;;;;;;;;;;;;;;;4993297;28;19964;-41
2023/08/11 08:09:25;;;;;;;;;;;;;;;;;;4993739;28;19925;-41
2023/08/11 08:11:51;;;;;;;;;;;;;;;;;;4993262;28;20300;-41
2023/08/11 08:14:17;;;;;;;;;;;;;;;;;;4997207;28;20004;-41
2023/08/11 08:16:46;;;;;;;;;;;;;;;;;;5000295;28;19964;-40
2023/08/11 08:19:12;;;;;;;;;;;;;;;;;;4997921;28;19976;-41
2023/08/11 08:21:38;;;;;;;;;;;;;;;;;;4994546;28;19973;-41
2023/08/11 08:24:04;;;;;;;;;;;;;;;;;;4993671;28;19917;-41
2023/08/11 08:26:30;;;;;;;;;;;;;;;;;;4998841;28;19914;-41
2023/08/11 08:28:56;;;;;;;;;;;;;;;;;;5012835;28;20063;-41
2023/08/11 08:31:22;;;;;;;;;;;;;;;;;;5005070;28;19916;-41
2023/08/11 08:33:48;;;;;;;;;;;;;;;;;;4993177;28;19910;-41
2023/08/11 08:36:14;;;;;;;;;;;;;;;;;;4992197;28;19913;-41
2023/08/11 08:38:40;;;;;;;;;;;;;;;;;;4993019;28;19916;-41
2023/08/11 08:41:05;;;;;;;;;;;;;;;;;;4993538;28;19913;-41
2023/08/11 08:43:31;;;;;;;;;;;;;;;;;;4995761;28;19964;-41
2023/08/11 08:45:57;;;;;;;;;;;;;;;;;;4992992;28;19960;-41
2023/08/11 08:48:23;;;;;;;;;;;;;;;;;;4993109;28;19921;-41
2023/08/11 08:50:49;;;;;;;;;;;;;;;;;;4992966;28;19956;-41
2023/08/11 08:53:15;;;;;;;;;;;;;;;;;;4993023;28;19913;-41
2023/08/11 08:55:41;;;;;;;;;;;;;;;;;;5004833;28;19913;-41
2023/08/11 08:58:09;;;;;;;;;;;;;;;;;;4997530;28;19914;-41
2023/08/11 09:00:35;;;;;;;;;;;;;;;;;;4992899;28;19914;-41
2023/08/11 09:03:00;;;;;;;;;;;;;;;;;;4992896;28;19968;-41
2023/08/11 09:05:26;;;;;;;;;;;;;;;;;;4991985;28;19916;-41
2023/08/11 09:07:52;;;;;;;;;;;;;;;;;;4992539;28;19997;-41
2023/08/11 09:10:18;;;;;;;;;;;;;;;;;;4991582;28;19914;-41
2023/08/11 09:12:44;;;;;;;;;;;;;;;;;;4992606;28;19956;-41
2023/08/11 09:15:11;;;;;;;;;;;;;;;;;;4992872;28;20013;-41
2023/08/11 09:17:37;;;;;;;;;;;;;;;;;;4991605;28;19996;-41
2023/08/11 09:20:03;;;;;;;;;;;;;;;;;;4992271;28;20048;-41
2023/08/11 09:22:32;;;;;;;;;;;;;;;;;;4999621;28;19909;-41
2023/08/11 09:24:58;;;;;;;;;;;;;;;;;;5012103;28;20410;-41
2023/08/11 09:27:24;;;;;;;;;;;;;;;;;;5002468;28;19913;-41
2023/08/11 09:29:50;;;;;;;;;;;;;;;;;;5007097;28;19917;-41
2023/08/11 09:32:16;;;;;;;;;;;;;;;;;;5008724;28;19913;-41
2023/08/11 09:34:41;;;;;;;;;;;;;;;;;;5012010;28;20416;-41
2023/08/11 09:37:07;;;;;;;;;;;;;;;;;;5012108;28;19916;-41
2023/08/11 09:39:34;;;;;;;;;;;;;;;;;;5012077;28;19933;-41
2023/08/11 09:42:00;;;;;;;;;;;;;;;;;;5005944;28;19925;-41
2023/08/11 09:44:26;;;;;;;;;;;;;;;;;;4992195;28;19910;-41
2023/08/11 09:46:52;;;;;;;;;;;;;;;;;;5011670;28;20001;-41
2023/08/11 09:49:18;;;;;;;;;;;;;;;;;;5011826;28;20391;-41
2023/08/11 09:51:44;;;;;;;;;;;;;;;;;;5011093;28;19919;-41
2023/08/11 09:54:10;;;;;;;;;;;;;;;;;;5012042;28;19958;-41
2023/08/11 09:56:36;;;;;;;;;;;;;;;;;;5010131;28;19921;-41
2023/08/11 09:59:02;;;;;;;;;;;;;;;;;;5011139;28;19917;-41
2023/08/11 10:01:28;;;;;;;;;;;;;;;;;;5011451;28;19956;-42
2023/08/11 10:03:54;;;;;;;;;;;;;;;;;;5011355;28;20001;-41
2023/08/11 10:06:20;;;;;;;;;;;;;;;;;;5011223;28;20483;-41
2023/08/11 10:08:46;;;;;;;;;;;;;;;;;;5002427;28;19920;-42
2023/08/11 10:11:12;;;;;;;;;;;;;;;;;;4999768;28;19925;-41
2023/08/11 10:13:38;;;;;;;;;;;;;;;;;;4994476;28;19914;-41
2023/08/11 10:16:03;;;;;;;;;;;;;;;;;;4997878;28;19914;-41
2023/08/11 10:18:31;;;;;;;;;;;;;;;;;;5015376;28;20368;-41
2023/08/11 10:20:57;;;;;;;;;;;;;;;;;;5015282;28;19909;-41
2023/08/11 10:23:23;;;;;;;;;;;;;;;;;;5001987;28;19910;-41
2023/08/11 10:25:48;;;;;;;;;;;;;;;;;;5001907;28;20300;-41
2023/08/11 10:28:14;;;;;;;;;;;;;;;;;;5014581;28;19995;-41
2023/08/11 10:30:40;;;;;;;;;;;;;;;;;;5008477;28;19960;-41
2023/08/11 10:33:06;;;;;;;;;;;;;;;;;;5011438;28;19914;-41
2023/08/11 10:35:32;;;;;;;;;;;;;;;;;;5014008;28;19945;-41
2023/08/11 10:37:58;;;;;;;;;;;;;;;;;;5014231;28;19983;-42
2023/08/11 10:40:24;;;;;;;;;;;;;;;;;;5012774;28;19915;-41
2023/08/11 10:42:50;;;;;;;;;;;;;;;;;;5012846;28;19913;-41
2023/08/11 10:45:16;;;;;;;;;;;;;;;;;;5013016;28;19937;-42
2023/08/11 10:47:42;;;;;;;;;;;;;;;;;;5014358;28;19932;-42
2023/08/11 10:50:08;;;;;;;;;;;;;;;;;;5013748;28;19920;-42
2023/08/11 10:52:34;;;;;;;;;;;;;;;;;;5012138;28;19914;-41
2023/08/11 10:55:01;;;;;;;;;;;;;;;;;;5012933;28;19910;-41
2023/08/11 10:57:30;;;;;;;;;;;;;;;;;;5005251;28;20007;-41
2023/08/11 10:59:55;;;;;;;;;;;;;;;;;;5010977;28;19920;-41
2023/08/11 11:02:21;;;;;;;;;;;;;;;;;;5013033;28;20276;-42
2023/08/11 11:04:47;;;;;;;;;;;;;;;;;;5013054;28;19921;-41
2023/08/11 11:07:14;;;;;;;;;;;;;;;;;;5011617;28;20606;-41
2023/08/11 11:09:40;;;;;;;;;;;;;;;;;;5007220;28;20004;-41
2023/08/11 11:12:06;;;;;;;;;;;;;;;;;;5013335;28;20456;-41
2023/08/11 11:14:31;;;;;;;;;;;;;;;;;;5004319;28;19932;-42
2023/08/11 11:16:58;;;;;;;;;;;;;;;;;;4998752;28;19968;-42
2023/08/11 11:19:24;;;;;;;;;;;;;;;;;;5008832;28;19917;-41
2023/08/11 11:21:50;;;;;;;;;;;;;;;;;;4997561;28;19913;-42
2023/08/11 11:24:17;;;;;;;;;;;;;;;;;;5004635;28;20000;-42
2023/08/11 11:26:42;;;;;;;;;;;;;;;;;;4998542;28;19914;-42
2023/08/11 11:29:08;;;;;;;;;;;;;;;;;;5008627;28;20387;-41
2023/08/11 11:31:34;;;;;;;;;;;;;;;;;;5006665;28;19917;-41
2023/08/11 11:34:00;;;;;;;;;;;;;;;;;;5008007;28;20406;-42
2023/08/11 11:36:26;;;;;;;;;;;;;;;;;;5007263;28;19917;-42
2023/08/11 11:38:52;;;;;;;;;;;;;;;;;;5009032;28;19953;-42
2023/08/11 11:41:18;;;;;;;;;;;;;;;;;;5003822;28;19918;-42
2023/08/11 11:43:44;;;;;;;;;;;;;;;;;;5005253;28;20038;-42
2023/08/11 11:46:15;;;;;;;;;;;;;;;;;;5003076;28;19967;-42
2023/08/11 11:48:42;;;;;;;;;;;;;;;;;;5008777;28;19913;-42
2023/08/11 11:51:08;;;;;;;;;;;;;;;;;;5009683;28;19918;-42
2023/08/11 11:53:33;;;;;;;;;;;;;;;;;;5007863;28;19914;-43
2023/08/11 11:55:59;;;;;;;;;;;;;;;;;;5008204;28;19936;-42
2023/08/11 11:58:25;;;;;;;;;;;;;;;;;;5005800;28;19921;-41
2023/08/11 12:00:51;;;;;;;;;;;;;;;;;;5009245;28;20323;-42
2023/08/11 12:03:18;;;;;;;;;;;;;;;;;;5005827;28;20304;-42
2023/08/11 12:05:44;;;;;;;;;;;;;;;;;;5005817;28;19913;-42
2023/08/11 12:08:10;;;;;;;;;;;;;;;;;;5007538;28;19918;-43
2023/08/11 12:10:36;;;;;;;;;;;;;;;;;;5022311;28;19976;-43
2023/08/11 12:13:03;;;;;;;;;;;;;;;;;;5009392;28;19921;-42
2023/08/11 12:15:28;;;;;;;;;;;;;;;;;;5008648;28;19914;-42
2023/08/11 12:17:54;;;;;;;;;;;;;;;;;;5006789;28;19976;-42
2023/08/11 12:20:20;;;;;;;;;;;;;;;;;;5006817;28;19975;-43
2023/08/11 12:22:46;;;;;;;;;;;;;;;;;;5003550;28;19960;-42
2023/08/11 12:25:12;;;;;;;;;;;;;;;;;;5001113;28;20331;-42
2023/08/11 12:27:38;;;;;;;;;;;;;;;;;;5008164;28;19913;-43
2023/08/11 12:30:04;;;;;;;;;;;;;;;;;;5004205;28;20387;-42
2023/08/11 12:32:30;;;;;;;;;;;;;;;;;;5008748;28;19933;-42
2023/08/11 12:34:56;;;;;;;;;;;;;;;;;;5008705;28;19917;-42
2023/08/11 12:37:24;;;;;;;;;;;;;;;;;;5007013;28;19917;-42
2023/08/11 12:39:50;;;;;;;;;;;;;;;;;;5005972;28;20011;-42
2023/08/11 12:42:16;;;;;;;;;;;;;;;;;;5006562;28;20301;-42
2023/08/11 12:44:42;;;;;;;;;;;;;;;;;;5007741;28;19914;-42
2023/08/11 12:47:08;;;;;;;;;;;;;;;;;;5007086;28;19917;-41
2023/08/11 12:49:34;;;;;;;;;;;;;;;;;;5007223;28;19917;-43
2023/08/11 12:51:59;;;;;;;;;;;;;;;;;;5007042;28;20377;-42
2023/08/11 12:54:25;;;;;;;;;;;;;;;;;;5005253;28;20304;-41
2023/08/11 12:56:51;;;;;;;;;;;;;;;;;;5006177;28;19937;-41
2023/08/11 12:59:17;;;;;;;;;;;;;;;;;;5006016;28;19913;-43
2023/08/11 13:01:43;;;;;;;;;;;;;;;;;;5009078;28;19909;-42
2023/08/11 13:04:11;;;;;;;;;;;;;;;;;;5006503;28;19972;-42
2023/08/11 13:06:37;;;;;;;;;;;;;;;;;;5007947;28;19913;-42
2023/08/11 13:09:03;;;;;;;;;;;;;;;;;;5007520;28;19916;-43
2023/08/11 13:11:29;;;;;;;;;;;;;;;;;;5008879;28;20004;-43
2023/08/11 13:13:55;;;;;;;;;;;;;;;;;;5001483;28;20080;-42
2023/08/11 13:16:21;;;;;;;;;;;;;;;;;;4997278;28;19909;-42
2023/08/11 13:18:47;;;;;;;;;;;;;;;;;;5000944;28;20348;-42
2023/08/11 13:21:13;;;;;;;;;;;;;;;;;;4996796;28;19914;-42
2023/08/11 13:23:40;;;;;;;;;;;;;;;;;;5007170;28;21307;-42
2023/08/11 13:26:06;;;;;;;;;;;;;;;;;;5005463;28;19925;-42
2023/08/11 13:28:32;;;;;;;;;;;;;;;;;;4989282;28;20352;-42
2023/08/11 13:30:59;;;;;;;;;;;;;;;;;;4988991;28;19921;-44
2023/08/11 13:33:24;;;;;;;;;;;;;;;;;;4990422;28;19917;-42
2023/08/11 13:35:50;;;;;;;;;;;;;;;;;;4996245;28;20436;-43
2023/08/11 13:38:16;;;;;;;;;;;;;;;;;;5007580;28;19913;-42
2023/08/11 13:40:42;;;;;;;;;;;;;;;;;;5008004;28;19920;-43
2023/08/11 13:43:08;;;;;;;;;;;;;;;;;;5008136;28;19916;-42
2023/08/11 13:45:34;;;;;;;;;;;;;;;;;;5005486;28;19921;-43
2023/08/11 13:48:00;;;;;;;;;;;;;;;;;;4998531;28;19914;-42
2023/08/11 13:50:26;;;;;;;;;;;;;;;;;;5002751;28;20320;-42
2023/08/11 13:52:51;;;;;;;;;;;;;;;;;;5006028;28;19914;-46
2023/08/11 13:55:17;;;;;;;;;;;;;;;;;;5006497;28;19920;-43
2023/08/11 13:57:44;;;;;;;;;;;;;;;;;;4989970;28;19921;-43
2023/08/11 14:00:12;;;;;;;;;;;;;;;;;;4987271;28;20385;-43
2023/08/11 14:02:38;;;;;;;;;;;;;;;;;;4987987;28;20431;-43
2023/08/11 14:05:04;;;;;;;;;;;;;;;;;;4996102;28;19924;-43
2023/08/11 14:07:29;;;;;;;;;;;;;;;;;;5008331;28;20175;-42
2023/08/11 14:09:55;;;;;;;;;;;;;;;;;;5005075;28;19953;-42
2023/08/11 14:12:21;;;;;;;;;;;;;;;;;;5005371;28;19932;-42
2023/08/11 14:14:48;;;;;;;;;;;;;;;;;;4997509;28;20300;-42
2023/08/11 14:17:14;;;;;;;;;;;;;;;;;;4997135;28;19914;-42
2023/08/11 14:19:40;;;;;;;;;;;;;;;;;;5007211;28;20013;-42
2023/08/11 14:22:06;;;;;;;;;;;;;;;;;;5004336;28;19928;-44
2023/08/11 14:24:32;;;;;;;;;;;;;;;;;;5000566;28;19996;-42
2023/08/11 14:26:59;;;;;;;;;;;;;;;;;;4999274;28;20008;-44
2023/08/11 14:29:25;;;;;;;;;;;;;;;;;;5006439;28;19918;-42
2023/08/11 14:31:51;;;;;;;;;;;;;;;;;;5006217;28;20343;-43
2023/08/11 14:34:16;;;;;;;;;;;;;;;;;;5008073;28;19914;-42
2023/08/11 14:36:42;;;;;;;;;;;;;;;;;;5007219;28;20329;-42
2023/08/11 14:39:08;;;;;;;;;;;;;;;;;;5000595;28;20009;-44
2023/08/11 14:41:34;;;;;;;;;;;;;;;;;;4988516;28;20105;-43
2023/08/11 14:44:00;;;;;;;;;;;;;;;;;;4996871;28;19953;-43
2023/08/11 14:46:26;;;;;;;;;;;;;;;;;;5004164;28;20169;-43
2023/08/11 14:48:52;;;;;;;;;;;;;;;;;;5003234;28;19913;-43
2023/08/11 14:51:18;;;;;;;;;;;;;;;;;;4997828;28;19913;-45
2023/08/11 14:53:44;;;;;;;;;;;;;;;;;;5007679;28;20033;-46
2023/08/11 14:56:09;;;;;;;;;;;;;;;;;;5008579;28;19910;-44
2023/08/11 14:58:35;;;;;;;;;;;;;;;;;;4992893;28;19913;-46
2023/08/11 15:01:01;;;;;;;;;;;;;;;;;;4999449;28;19921;-46
2023/08/11 15:03:27;;;;;;;;;;;;;;;;;;5011408;28;19909;-47
2023/08/11 15:05:53;;;;;;;;;;;;;;;;;;5011960;28;19940;-46
2023/08/11 15:08:19;;;;;;;;;;;;;;;;;;5010423;28;19995;-45
2023/08/11 15:10:45;;;;;;;;;;;;;;;;;;5004898;28;19925;-43
2023/08/11 15:13:11;;;;;;;;;;;;;;;;;;5011713;28;20365;-44
2023/08/11 15:15:37;;;;;;;;;;;;;;;;;;5008064;28;20320;-45
2023/08/11 15:18:03;;;;;;;;;;;;;;;;;;5011650;28;19964;-45
2023/08/11 15:20:29;;;;;;;;;;;;;;;;;;4995354;28;20000;-46
2023/08/11 15:22:55;;;;;;;;;;;;;;;;;;4991731;28;20016;-44
2023/08/11 15:25:20;;;;;;;;;;;;;;;;;;4994641;28;20369;-45
2023/08/11 15:27:46;;;;;;;;;;;;;;;;;;5005842;28;19953;-44
2023/08/11 15:30:12;;;;;;;;;;;;;;;;;;5011844;28;19914;-44
2023/08/11 15:32:38;;;;;;;;;;;;;;;;;;5007948;28;20249;-45
2023/08/11 15:35:04;;;;;;;;;;;;;;;;;;4995879;28;19914;-44
2023/08/11 15:37:30;;;;;;;;;;;;;;;;;;4995258;28;19913;-44
2023/08/11 15:39:56;;;;;;;;;;;;;;;;;;5002861;28;19914;-47
2023/08/11 15:42:22;;;;;;;;;;;;;;;;;;5011384;28;19916;-45
2023/08/11 15:44:48;;;;;;;;;;;;;;;;;;5011354;28;20051;-43
2023/08/11 15:47:14;;;;;;;;;;;;;;;;;;5011504;28;19920;-44
2023/08/11 15:49:40;;;;;;;;;;;;;;;;;;5005203;28;20008;-46
2023/08/11 15:52:05;;;;;;;;;;;;;;;;;;5008773;28;19913;-45
2023/08/11 15:54:31;;;;;;;;;;;;;;;;;;4999804;28;19913;-44
2023/08/11 15:56:57;;;;;;;;;;;;;;;;;;4999940;28;20262;-45
2023/08/11 15:59:23;;;;;;;;;;;;;;;;;;5006236;28;19914;-45
2023/08/11 16:01:49;;;;;;;;;;;;;;;;;;5009818;28;20284;-43
2023/08/11 16:04:15;;;;;;;;;;;;;;;;;;5010755;28;19919;-44
2023/08/11 16:06:41;;;;;;;;;;;;;;;;;;5009798;28;19924;-44
2023/08/11 16:09:07;;;;;;;;;;;;;;;;;;5010853;28;20273;-45
2023/08/11 16:11:34;;;;;;;;;;;;;;;;;;5009532;28;19914;-43
2023/08/11 16:14:00;;;;;;;;;;;;;;;;;;5009986;28;20339;-44
2023/08/11 16:16:26;;;;;;;;;;;;;;;;;;5010686;28;20000;-44
2023/08/11 16:18:52;;;;;;;;;;;;;;;;;;5005852;28;20163;-44
2023/08/11 16:21:18;;;;;;;;;;;;;;;;;;5009093;28;19909;-45
2023/08/11 16:23:44;;;;;;;;;;;;;;;;;;5008995;28;19972;-43
2023/08/11 16:28:32;;;;;;;;;;;;;;;;;;5103243;27;19916;-44
2023/08/11 16:30:58;;;;;;;;;;;;;;;;;;5088780;28;19991;-45
2023/08/11 16:33:24;;;;;;;;;;;;;;;;;;5085139;28;19912;-45
2023/08/11 16:35:50;;;;;;;;;;;;;;;;;;5094960;28;19912;-45
2023/08/11 16:38:16;;;;;;;;;;;;;;;;;;5086294;28;19913;-44
2023/08/11 16:40:42;;;;;;;;;;;;;;;;;;5083963;28;19916;-44
2023/08/11 16:43:09;;;;;;;;;;;;;;;;;;5105201;28;19911;-44
2023/08/11 16:45:36;;;;;;;;;;;;;;;;;;5086765;28;20354;-45
2023/08/11 16:48:03;;;;;;;;;;;;;;;;;;5084692;28;19966;-45
2023/08/11 16:50:28;;;;;;;;;;;;;;;;;;5082054;28;19912;-47
2023/08/11 16:52:54;;;;;;;;;;;;;;;;;;5083931;28;20290;-44
2023/08/11 16:55:20;;;;;;;;;;;;;;;;;;5088608;28;20005;-45
2023/08/11 16:57:46;;;;;;;;;;;;;;;;;;5084845;28;19908;-45
2023/08/11 17:00:12;;;;;;;;;;;;;;;;;;5084738;28;19908;-44
2023/08/11 17:02:38;;;;;;;;;;;;;;;;;;5084071;28;19944;-47
2023/08/11 17:05:04;;;;;;;;;;;;;;;;;;5084769;28;19922;-43
2023/08/11 17:07:30;;;;;;;;;;;;;;;;;;5083036;28;19923;-43
2023/08/11 17:09:56;;;;;;;;;;;;;;;;;;5088134;28;19974;-43
2023/08/11 17:12:21;;;;;;;;;;;;;;;;;;5088596;28;19948;-44
2023/08/11 17:14:47;;;;;;;;;;;;;;;;;;5082471;28;19913;-45
2023/08/11 17:17:13;;;;;;;;;;;;;;;;;;5083274;28;19913;-45
2023/08/11 17:19:39;;;;;;;;;;;;;;;;;;5090747;28;19951;-43
2023/08/11 17:22:06;;;;;;;;;;;;;;;;;;5104811;28;19922;-44
2023/08/11 17:24:32;;;;;;;;;;;;;;;;;;5099317;28;19912;-43
2023/08/11 17:26:58;;;;;;;;;;;;;;;;;;5093714;28;19923;-44
2023/08/11 17:29:24;;;;;;;;;;;;;;;;;;5084027;28;19918;-43
2023/08/11 17:31:50;;;;;;;;;;;;;;;;;;5082918;28;19978;-44
2023/08/11 17:34:16;;;;;;;;;;;;;;;;;;5082873;28;19999;-44
2023/08/11 17:36:42;;;;;;;;;;;;;;;;;;5082222;28;19954;-44
2023/08/11 17:39:07;;;;;;;;;;;;;;;;;;5073468;28;19916;-44
2023/08/11 17:41:33;;;;;;;;;;;;;;;;;;5068648;28;19939;-45
2023/08/11 17:43:59;;;;;;;;;;;;;;;;;;5064482;28;19940;-46
2023/08/11 17:46:25;;;;;;;;;;;;;;;;;;5082088;28;20022;-44
2023/08/11 17:48:52;;;;;;;;;;;;;;;;;;5081645;28;20300;-43
2023/08/11 17:51:18;;;;;;;;;;;;;;;;;;5080202;28;19927;-45
2023/08/11 17:53:44;;;;;;;;;;;;;;;;;;5097906;28;19944;-45
2023/08/11 17:56:10;;;;;;;;;;;;;;;;;;5082496;28;19916;-46
2023/08/11 17:58:36;;;;;;;;;;;;;;;;;;5081461;28;19919;-43
2023/08/11 18:01:02;;;;;;;;;;;;;;;;;;5083492;28;19920;-45
2023/08/11 18:03:28;;;;;;;;;;;;;;;;;;5088261;28;19960;-44
2023/08/11 18:05:54;;;;;;;;;;;;;;;;;;5080447;28;20437;-45
2023/08/11 18:08:20;;;;;;;;;;;;;;;;;;5088975;28;19916;-44
2023/08/11 18:10:46;;;;;;;;;;;;;;;;;;5087383;28;20298;-44
2023/08/11 18:13:12;;;;;;;;;;;;;;;;;;5087233;28;19920;-44
2023/08/11 18:15:38;;;;;;;;;;;;;;;;;;5075055;28;20014;-45
2023/08/11 18:18:03;;;;;;;;;;;;;;;;;;5085867;28;20386;-44
2023/08/11 18:20:29;;;;;;;;;;;;;;;;;;5083403;28;20286;-45
2023/08/11 18:22:57;;;;;;;;;;;;;;;;;;5082163;28;19973;-46
2023/08/11 18:25:23;;;;;;;;;;;;;;;;;;5088678;28;20382;-44
2023/08/11 18:27:49;;;;;;;;;;;;;;;;;;5082075;28;19916;-44
2023/08/11 18:30:15;;;;;;;;;;;;;;;;;;5082295;28;19917;-45
2023/08/11 18:32:41;;;;;;;;;;;;;;;;;;5076275;28;19974;-45
2023/08/11 18:35:07;;;;;;;;;;;;;;;;;;5083778;28;19934;-44
2023/08/11 18:37:33;;;;;;;;;;;;;;;;;;5085377;28;19966;-44
2023/08/11 18:39:59;;;;;;;;;;;;;;;;;;5087098;28;20298;-44
2023/08/11 18:42:25;;;;;;;;;;;;;;;;;;5088623;28;19909;-45
2023/08/11 18:44:51;;;;;;;;;;;;;;;;;;5077915;28;19916;-43
2023/08/11 18:47:17;;;;;;;;;;;;;;;;;;5068662;28;20547;-44
2023/08/11 18:49:43;;;;;;;;;;;;;;;;;;5079586;28;19999;-43
2023/08/11 18:52:11;;;;;;;;;;;;;;;;;;5084829;28;19912;-43
2023/08/11 18:54:38;;;;;;;;;;;;;;;;;;5087893;28;19961;-44
2023/08/11 18:57:04;;;;;;;;;;;;;;;;;;5087597;28;19961;-45
2023/08/11 18:59:30;;;;;;;;;;;;;;;;;;5088623;28;19947;-46
2023/08/11 19:01:55;;;;;;;;;;;;;;;;;;5079022;28;19970;-43
2023/08/11 19:04:21;;;;;;;;;;;;;;;;;;5067736;28;20227;-45
2023/08/11 19:06:47;;;;;;;;;;;;;;;;;;5067071;28;20331;-44
2023/08/11 19:09:13;;;;;;;;;;;;;;;;;;5068160;28;20020;-44
2023/08/11 19:11:39;;;;;;;;;;;;;;;;;;5087168;28;20045;-43
2023/08/11 19:14:07;;;;;;;;;;;;;;;;;;5080670;28;19912;-44
2023/08/11 19:16:33;;;;;;;;;;;;;;;;;;5075000;28;19922;-44
2023/08/11 19:18:59;;;;;;;;;;;;;;;;;;5086557;28;20369;-44
2023/08/11 19:21:24;;;;;;;;;;;;;;;;;;5077484;28;19920;-43
2023/08/11 19:23:51;;;;;;;;;;;;;;;;;;5083936;28;19923;-44
2023/08/11 19:26:17;;;;;;;;;;;;;;;;;;5081705;28;19943;-44
2023/08/11 19:28:43;;;;;;;;;;;;;;;;;;5082641;28;20414;-44
2023/08/11 19:31:09;;;;;;;;;;;;;;;;;;5084827;28;19912;-44
2023/08/11 19:33:35;;;;;;;;;;;;;;;;;;5085760;28;19909;-44
2023/08/11 19:36:01;;;;;;;;;;;;;;;;;;5085711;28;20497;-43
2023/08/11 19:38:27;;;;;;;;;;;;;;;;;;5083409;28;19913;-45
2023/08/11 19:40:53;;;;;;;;;;;;;;;;;;5078840;28;19908;-44
2023/08/11 19:43:18;;;;;;;;;;;;;;;;;;5081843;28;19970;-43
2023/08/11 19:45:44;;;;;;;;;;;;;;;;;;5085181;28;19969;-44
2023/08/11 19:48:10;;;;;;;;;;;;;;;;;;5084362;28;19957;-44
2023/08/11 19:50:36;;;;;;;;;;;;;;;;;;5068026;28;20440;-44
2023/08/11 19:53:02;;;;;;;;;;;;;;;;;;5065922;28;19913;-43
2023/08/11 19:55:28;;;;;;;;;;;;;;;;;;5069481;28;19912;-44
2023/08/11 19:57:54;;;;;;;;;;;;;;;;;;5083310;28;19948;-44
2023/08/11 20:00:20;;;;;;;;;;;;;;;;;;5072719;28;19920;-43
2023/08/11 20:02:46;;;;;;;;;;;;;;;;;;5086535;28;19913;-44
2023/08/11 20:05:12;;;;;;;;;;;;;;;;;;5088131;28;19916;-43
2023/08/11 20:07:38;;;;;;;;;;;;;;;;;;5085770;28;20406;-44
2023/08/11 20:10:04;;;;;;;;;;;;;;;;;;5084433;28;19923;-44
2023/08/11 20:12:30;;;;;;;;;;;;;;;;;;5086969;28;19931;-44
2023/08/11 20:14:56;;;;;;;;;;;;;;;;;;5084503;28;20001;-43
2023/08/11 20:17:21;;;;;;;;;;;;;;;;;;5086255;28;20399;-44
2023/08/11 20:19:47;;;;;;;;;;;;;;;;;;5087847;28;19912;-45
2023/08/11 20:22:13;;;;;;;;;;;;;;;;;;5084775;28;19918;-44
2023/08/11 20:24:39;;;;;;;;;;;;;;;;;;5082978;28;19966;-44
2023/08/11 20:27:05;;;;;;;;;;;;;;;;;;5083341;28;19961;-45
2023/08/11 20:29:31;;;;;;;;;;;;;;;;;;5088036;28;19908;-45
2023/08/11 20:31:57;;;;;;;;;;;;;;;;;;5085302;28;19939;-43
2023/08/11 20:34:23;;;;;;;;;;;;;;;;;;5085764;28;19912;-44
2023/08/11 20:36:48;;;;;;;;;;;;;;;;;;5087233;28;19915;-44
2023/08/11 20:39:15;;;;;;;;;;;;;;;;;;5087516;28;19999;-44
2023/08/11 20:41:41;;;;;;;;;;;;;;;;;;5083907;28;20435;-44
2023/08/11 20:44:07;;;;;;;;;;;;;;;;;;5085795;28;19913;-44
2023/08/11 20:46:33;;;;;;;;;;;;;;;;;;5087655;28;19916;-44
2023/08/11 20:48:59;;;;;;;;;;;;;;;;;;5082406;28;19954;-43
2023/08/11 20:51:25;;;;;;;;;;;;;;;;;;5067421;28;19912;-44
2023/08/11 20:53:51;;;;;;;;;;;;;;;;;;5067034;28;19915;-43
2023/08/11 20:56:17;;;;;;;;;;;;;;;;;;5067495;28;20409;-43
2023/08/11 20:58:42;;;;;;;;;;;;;;;;;;5082573;28;19944;-44
2023/08/11 21:01:08;;;;;;;;;;;;;;;;;;5067328;28;19909;-42
2023/08/11 21:03:34;;;;;;;;;;;;;;;;;;5067196;28;19905;-43
2023/08/11 21:06:00;;;;;;;;;;;;;;;;;;5067502;28;19908;-42
2023/08/11 21:08:26;;;;;;;;;;;;;;;;;;5066291;28;20312;-44
2023/08/11 21:10:52;;;;;;;;;;;;;;;;;;5081105;28;19916;-44
2023/08/11 21:13:18;;;;;;;;;;;;;;;;;;5066515;28;20363;-43
2023/08/11 21:15:44;;;;;;;;;;;;;;;;;;5069445;28;19921;-43
2023/08/11 21:18:10;;;;;;;;;;;;;;;;;;5085248;28;19944;-46
2023/08/11 21:20:36;;;;;;;;;;;;;;;;;;5069430;28;19904;-43
2023/08/11 21:23:02;;;;;;;;;;;;;;;;;;5085159;28;19915;-44
2023/08/11 21:25:28;;;;;;;;;;;;;;;;;;5070407;28;19931;-43
2023/08/11 21:27:53;;;;;;;;;;;;;;;;;;5068810;28;19928;-44
2023/08/11 21:30:19;;;;;;;;;;;;;;;;;;5069279;28;20469;-43
2023/08/11 21:32:45;;;;;;;;;;;;;;;;;;5068967;28;19963;-43
2023/08/11 21:35:11;;;;;;;;;;;;;;;;;;5069630;28;20439;-43
2023/08/11 21:37:37;;;;;;;;;;;;;;;;;;5068373;28;19958;-43
2023/08/11 21:40:03;;;;;;;;;;;;;;;;;;5069053;28;20597;-43
2023/08/11 21:42:29;;;;;;;;;;;;;;;;;;5069715;28;20007;-44
2023/08/11 21:44:55;;;;;;;;;;;;;;;;;;5069034;28;19966;-43
2023/08/11 21:47:21;;;;;;;;;;;;;;;;;;5068740;28;20397;-43
2023/08/11 21:49:46;;;;;;;;;;;;;;;;;;5068666;28;19917;-43
2023/08/11 21:52:12;;;;;;;;;;;;;;;;;;5068565;28;19916;-42
2023/08/11 21:54:38;;;;;;;;;;;;;;;;;;5068495;28;19913;-44